createdAt,value
2023-06-10T00:00:02.816Z,20.30
2023-06-10T00:02:29.725Z,20.19
2023-06-10T00:04:58.481Z,20.01
2023-06-10T00:07:25.429Z,19.74
2023-06-10T00:09:52.133Z,19.54
2023-06-10T00:12:18.935Z,19.45
2023-06-10T00:14:45.966Z,19.25
2023-06-10T00:17:12.679Z,19.30
2023-06-10T00:19:39.404Z,19.19
2023-06-10T00:22:06.375Z,19.17
2023-06-10T00:24:33.086Z,19.20
2023-06-10T00:26:59.861Z,19.04
2023-06-10T00:29:26.637Z,19.13
2023-06-10T00:31:56.539Z,19.15
2023-06-10T00:34:23.215Z,18.96
2023-06-10T00:36:49.889Z,18.85
2023-06-10T00:39:16.594Z,18.85
2023-06-10T00:41:43.556Z,18.85
2023-06-10T00:44:10.274Z,18.80
2023-06-10T00:46:37.377Z,18.62
2023-06-10T00:49:04.666Z,18.59
2023-06-10T00:51:31.672Z,18.57
2023-06-10T00:53:58.880Z,18.76
2023-06-10T00:56:25.844Z,18.51
2023-06-10T00:58:53.259Z,18.68
2023-06-10T01:01:20.137Z,18.56
2023-06-10T01:03:47.215Z,18.45
2023-06-10T01:06:47.993Z,18.54
2023-06-10T01:09:39.252Z,18.88
2023-06-10T01:12:13.024Z,19.09
2023-06-10T01:14:40.284Z,19.31
2023-06-10T01:17:08.724Z,18.92
2023-06-10T01:19:35.541Z,19.05
2023-06-10T01:22:02.287Z,18.79
2023-06-10T01:24:29.505Z,18.95
2023-06-10T01:27:02.393Z,19.02
2023-06-10T01:29:46.396Z,18.58
2023-06-10T01:32:44.043Z,18.52
2023-06-10T01:35:12.839Z,18.62
2023-06-10T01:37:42.605Z,18.60
2023-06-10T01:40:10.782Z,18.64
2023-06-10T01:42:37.835Z,18.53
2023-06-10T01:45:05.135Z,18.26
2023-06-10T01:47:31.912Z,18.49
2023-06-10T01:49:58.667Z,18.29
2023-06-10T01:52:25.984Z,18.46
2023-06-10T01:54:52.714Z,18.53
2023-06-10T01:57:19.716Z,18.70
2023-06-10T01:59:46.421Z,18.74
2023-06-10T02:02:13.126Z,18.92
2023-06-10T02:04:40.832Z,19.05
2023-06-10T02:07:07.520Z,19.06
2023-06-10T02:09:34.457Z,19.34
2023-06-10T02:12:01.176Z,19.22
2023-06-10T02:14:27.960Z,19.09
2023-06-10T02:16:54.701Z,19.10
2023-06-10T02:19:21.402Z,19.22
2023-06-10T02:21:48.126Z,18.99
2023-06-10T02:24:14.902Z,19.04
2023-06-10T02:26:41.721Z,19.03
2023-06-10T02:29:08.444Z,19.08
2023-06-10T02:31:35.217Z,19.20
2023-06-10T02:34:02.791Z,19.38
2023-06-10T02:36:29.552Z,19.55
2023-06-10T02:38:58.933Z,19.56
2023-06-10T02:41:25.660Z,19.46
2023-06-10T02:43:52.432Z,19.47
2023-06-10T02:46:19.283Z,19.46
2023-06-10T02:48:46.695Z,19.46
2023-06-10T02:51:13.440Z,19.12
2023-06-10T02:53:40.134Z,19.31
2023-06-10T02:56:06.904Z,19.30
2023-06-10T02:58:33.621Z,19.33
2023-06-10T03:01:00.375Z,19.14
2023-06-10T03:03:27.195Z,19.13
2023-06-10T03:05:54.007Z,19.02
2023-06-10T03:08:20.758Z,19.06
2023-06-10T03:10:47.523Z,19.15
2023-06-10T03:13:14.305Z,19.34
2023-06-10T03:15:41.039Z,19.53
2023-06-10T03:18:07.900Z,19.59
2023-06-10T03:20:34.730Z,19.68
2023-06-10T03:23:01.440Z,19.89
2023-06-10T03:25:28.175Z,20.03
2023-06-10T03:27:54.863Z,20.20
2023-06-10T03:30:21.565Z,20.26
2023-06-10T03:32:48.305Z,20.29
2023-06-10T03:35:15.189Z,20.36
2023-06-10T03:37:42.090Z,20.42
2023-06-10T03:40:09.428Z,20.42
2023-06-10T03:42:36.377Z,20.41
2023-06-10T03:45:04.140Z,20.50
2023-06-10T03:47:38.611Z,20.58
2023-06-10T03:50:05.816Z,20.61
2023-06-10T03:52:32.637Z,20.57
2023-06-10T03:54:59.493Z,20.66
2023-06-10T03:57:26.184Z,20.74
2023-06-10T03:59:52.933Z,20.70
2023-06-10T04:02:19.627Z,20.76
2023-06-10T04:04:46.382Z,20.50
2023-06-10T04:07:13.648Z,20.46
2023-06-10T04:09:40.483Z,19.90
2023-06-10T04:12:07.893Z,19.79
2023-06-10T04:14:34.644Z,19.84
2023-06-10T04:17:01.498Z,19.95
2023-06-10T04:19:28.268Z,19.99
2023-06-10T04:21:55.104Z,19.75
2023-06-10T04:24:21.996Z,19.58
2023-06-10T04:26:48.823Z,19.69
2023-06-10T04:29:15.533Z,19.92
2023-06-10T04:31:42.262Z,19.92
2023-06-10T04:34:08.995Z,19.87
2023-06-10T04:36:35.739Z,19.92
2023-06-10T04:39:02.458Z,20.05
2023-06-10T04:41:30.432Z,19.72
2023-06-10T04:43:57.158Z,19.82
2023-06-10T04:46:23.884Z,19.77
2023-06-10T04:48:50.880Z,19.56
2023-06-10T04:51:17.604Z,19.45
2023-06-10T04:53:44.356Z,19.51
2023-06-10T04:56:11.033Z,19.42
2023-06-10T04:58:37.706Z,19.55
2023-06-10T05:01:04.546Z,19.82
2023-06-10T05:03:31.415Z,20.11
2023-06-10T05:05:58.257Z,20.28
2023-06-10T05:08:24.925Z,20.18
2023-06-10T05:10:51.636Z,20.15
2023-06-10T05:13:18.322Z,20.13
2023-06-10T05:15:45.040Z,20.36
2023-06-10T05:18:11.992Z,20.37
2023-06-10T05:20:38.736Z,20.57
2023-06-10T05:23:05.539Z,20.66
2023-06-10T05:25:34.819Z,20.75
2023-06-10T05:28:01.564Z,20.83
2023-06-10T05:30:28.442Z,20.73
2023-06-10T05:32:55.247Z,20.85
2023-06-10T05:35:21.967Z,20.91
2023-06-10T05:37:49.033Z,21.04
2023-06-10T05:40:15.788Z,20.75
2023-06-10T05:42:42.498Z,20.86
2023-06-10T05:45:10.045Z,20.85
2023-06-10T05:47:37.063Z,20.70
2023-06-10T05:50:04.117Z,20.43
2023-06-10T05:52:30.847Z,20.48
2023-06-10T05:54:57.548Z,20.10
2023-06-10T05:57:24.315Z,20.34
2023-06-10T05:59:51.054Z,20.52
2023-06-10T06:02:17.924Z,20.52
2023-06-10T06:04:45.874Z,20.65
2023-06-10T06:07:12.744Z,20.82
2023-06-10T06:09:39.480Z,20.83
2023-06-10T06:12:06.737Z,20.97
2023-06-10T06:14:33.466Z,21.04
2023-06-10T06:17:00.149Z,20.95
2023-06-10T06:19:26.974Z,20.83
2023-06-10T06:21:53.666Z,20.85
2023-06-10T06:24:20.438Z,20.96
2023-06-10T06:26:47.258Z,20.59
2023-06-10T06:29:13.939Z,20.07
2023-06-10T06:31:40.693Z,19.58
2023-06-10T06:34:07.410Z,19.54
2023-06-10T06:36:34.119Z,19.75
2023-06-10T06:39:00.877Z,19.65
2023-06-10T06:41:28.811Z,19.97
2023-06-10T06:43:56.345Z,19.99
2023-06-10T06:46:23.063Z,19.78
2023-06-10T06:48:52.634Z,20.13
2023-06-10T06:51:20.724Z,20.38
2023-06-10T06:53:47.463Z,20.48
2023-06-10T06:56:14.170Z,20.31
2023-06-10T06:58:41.012Z,20.46
2023-06-10T07:01:07.964Z,20.81
2023-06-10T07:03:34.692Z,20.89
2023-06-10T07:06:08.678Z,20.52
2023-06-10T07:08:35.348Z,20.70
2023-06-10T07:11:04.102Z,20.91
2023-06-10T07:13:30.778Z,21.09
2023-06-10T07:15:57.563Z,21.23
2023-06-10T07:18:24.793Z,21.45
2023-06-10T07:20:51.525Z,21.28
2023-06-10T07:23:18.247Z,21.42
2023-06-10T07:25:45.108Z,21.69
2023-06-10T07:28:11.831Z,21.98
2023-06-10T07:30:38.622Z,21.88
2023-06-10T07:33:05.801Z,22.09
2023-06-10T07:35:34.763Z,22.01
2023-06-10T07:38:01.477Z,21.81
2023-06-10T07:40:28.254Z,21.95
2023-06-10T07:42:56.326Z,21.76
2023-06-10T07:45:23.182Z,21.51
2023-06-10T07:47:49.915Z,21.23
2023-06-10T07:50:16.729Z,21.36
2023-06-10T07:52:43.442Z,21.48
2023-06-10T07:55:10.451Z,21.65
2023-06-10T07:57:37.426Z,21.45
2023-06-10T08:00:04.820Z,21.68
2023-06-10T08:02:31.627Z,21.89
2023-06-10T08:04:59.073Z,21.64
2023-06-10T08:07:25.803Z,21.05
2023-06-10T08:09:52.875Z,21.12
2023-06-10T08:12:19.550Z,21.53
2023-06-10T08:14:46.253Z,21.61
2023-06-10T08:17:12.985Z,21.62
2023-06-10T08:19:39.745Z,21.60
2023-06-10T08:22:06.607Z,21.80
2023-06-10T08:24:34.201Z,22.39
2023-06-10T08:27:00.978Z,22.84
2023-06-10T08:29:27.860Z,23.06
2023-06-10T08:31:54.797Z,23.02
2023-06-10T08:34:21.820Z,22.98
2023-06-10T08:36:48.570Z,23.32
2023-06-10T08:39:15.307Z,23.78
2023-06-10T08:41:48.172Z,24.14
2023-06-10T08:44:23.315Z,24.37
2023-06-10T08:46:52.032Z,24.02
2023-06-10T08:49:22.836Z,23.86
2023-06-10T08:51:59.091Z,23.88
2023-06-10T08:54:32.626Z,24.05
2023-06-10T08:57:02.931Z,24.23
2023-06-10T08:59:30.395Z,23.95
2023-06-10T09:01:57.604Z,23.10
2023-06-10T09:04:25.699Z,22.47
2023-06-10T09:06:54.585Z,22.98
2023-06-10T09:09:22.087Z,23.09
2023-06-10T09:11:48.819Z,22.53
2023-06-10T09:14:15.776Z,22.54
2023-06-10T09:16:43.324Z,22.84
2023-06-10T09:19:12.195Z,23.03
2023-06-10T09:21:38.868Z,23.13
2023-06-10T09:24:08.703Z,23.35
2023-06-10T09:26:35.657Z,23.16
2023-06-10T09:29:08.560Z,23.29
2023-06-10T09:31:37.447Z,23.39
2023-06-10T09:34:09.239Z,23.48
2023-06-10T09:36:37.554Z,23.81
2023-06-10T09:39:04.888Z,23.79
2023-06-10T09:41:41.642Z,24.15
2023-06-10T09:44:22.853Z,24.14
2023-06-10T09:46:50.836Z,24.32
2023-06-10T09:49:18.409Z,24.59
2023-06-10T09:51:55.927Z,24.68
2023-06-10T09:54:23.581Z,24.01
2023-06-10T09:56:53.089Z,23.54
2023-06-10T09:59:30.445Z,23.75
2023-06-10T10:01:57.767Z,23.51
2023-06-10T10:04:26.095Z,23.85
2023-06-10T10:06:52.910Z,24.08
2023-06-10T10:09:19.621Z,23.70
2023-06-10T10:11:49.613Z,23.50
2023-06-10T10:14:19.998Z,23.91
2023-06-10T10:16:50.522Z,24.17
2023-06-10T10:19:24.335Z,24.10
2023-06-10T10:22:02.342Z,24.14
2023-06-10T10:24:40.770Z,24.02
2023-06-10T10:27:19.332Z,24.05
2023-06-10T10:29:53.030Z,23.78
2023-06-10T10:32:27.498Z,23.93
2023-06-10T10:35:08.486Z,24.49
2023-06-10T10:37:36.714Z,24.58
2023-06-10T10:40:05.583Z,24.83
2023-06-10T10:42:34.702Z,25.05
2023-06-10T10:45:03.044Z,24.52
2023-06-10T10:47:32.911Z,24.60
2023-06-10T10:49:59.643Z,24.30
2023-06-10T10:52:28.091Z,24.70
2023-06-10T10:54:57.513Z,25.19
2023-06-10T10:57:25.283Z,25.41
2023-06-10T10:59:59.787Z,24.59
2023-06-10T11:02:45.171Z,24.52
2023-06-10T11:05:16.451Z,24.86
2023-06-10T11:07:54.245Z,25.28
2023-06-10T11:10:40.081Z,25.11
2023-06-10T11:13:13.818Z,24.61
2023-06-10T11:15:48.483Z,23.80
2023-06-10T11:18:23.518Z,23.30
2023-06-10T11:20:50.284Z,23.47
2023-06-10T11:23:31.232Z,24.08
2023-06-10T11:26:24.331Z,24.72
2023-06-10T11:28:54.111Z,25.17
2023-06-10T11:31:25.699Z,25.73
2023-06-10T11:33:57.496Z,26.10
2023-06-10T11:36:26.085Z,26.35
2023-06-10T11:38:58.528Z,26.56
2023-06-10T11:41:28.098Z,26.39
2023-06-10T11:43:55.373Z,26.46
2023-06-10T11:46:22.083Z,26.44
2023-06-10T11:48:56.662Z,26.37
2023-06-10T11:51:27.612Z,26.21
2023-06-10T11:53:55.289Z,26.10
2023-06-10T11:56:26.836Z,25.98
2023-06-10T11:58:59.251Z,26.44
2023-06-10T12:01:29.926Z,26.73
2023-06-10T12:04:15.917Z,26.57
2023-06-10T12:06:44.063Z,26.37
2023-06-10T12:09:28.132Z,25.82
2023-06-10T12:12:06.638Z,25.02
2023-06-10T12:15:07.221Z,25.19
2023-06-10T12:17:34.461Z,25.09
2023-06-10T12:20:02.456Z,24.74
2023-06-10T12:22:37.928Z,24.25
2023-06-10T12:25:07.012Z,24.14
2023-06-10T12:27:35.453Z,24.19
2023-06-10T12:30:04.909Z,23.66
2023-06-10T12:32:43.884Z,23.90
2023-06-10T12:35:12.785Z,24.37
2023-06-10T12:37:43.523Z,24.35
2023-06-10T12:40:13.501Z,24.73
2023-06-10T12:42:40.750Z,25.17
2023-06-10T12:45:08.179Z,24.78
2023-06-10T12:47:38.168Z,24.96
2023-06-10T12:50:05.733Z,25.12
2023-06-10T12:52:33.268Z,25.02
2023-06-10T12:55:00.098Z,25.06
2023-06-10T12:57:26.857Z,25.05
2023-06-10T12:59:56.554Z,24.89
2023-06-10T13:02:23.262Z,24.93
2023-06-10T13:04:50.196Z,25.04
2023-06-10T13:07:17.597Z,25.39
2023-06-10T13:09:45.118Z,24.86
2023-06-10T13:12:24.936Z,25.09
2023-06-10T13:15:00.202Z,25.42
2023-06-10T13:17:27.060Z,24.99
2023-06-10T13:19:53.905Z,24.83
2023-06-10T13:22:20.658Z,25.33
2023-06-10T13:24:47.386Z,24.95
2023-06-10T13:27:14.099Z,24.94
2023-06-10T13:29:41.156Z,24.93
2023-06-10T13:32:08.520Z,24.74
2023-06-10T13:34:39.194Z,24.94
2023-06-10T13:37:06.831Z,24.90
2023-06-10T13:39:33.547Z,24.83
2023-06-10T13:42:00.348Z,24.55
2023-06-10T13:44:27.105Z,24.80
2023-06-10T13:46:53.936Z,24.80
2023-06-10T13:49:22.023Z,24.97
2023-06-10T13:51:48.850Z,24.91
2023-06-10T13:54:15.546Z,24.72
2023-06-10T13:56:42.627Z,24.49
2023-06-10T13:59:09.326Z,24.68
2023-06-10T14:01:36.189Z,24.57
2023-06-10T14:04:04.223Z,24.70
2023-06-10T14:06:31.028Z,24.46
2023-06-10T14:08:57.760Z,24.60
2023-06-10T14:11:24.458Z,24.64
2023-06-10T14:13:51.245Z,25.12
2023-06-10T14:16:18.145Z,25.11
2023-06-10T14:18:44.944Z,25.25
2023-06-10T14:21:11.683Z,25.42
2023-06-10T14:23:38.529Z,25.49
2023-06-10T14:26:05.303Z,25.23
2023-06-10T14:28:32.004Z,25.28
2023-06-10T14:30:58.842Z,25.17
2023-06-10T14:33:25.693Z,24.98
2023-06-10T14:35:52.498Z,24.89
2023-06-10T14:38:19.288Z,25.16
2023-06-10T14:40:45.985Z,24.91
2023-06-10T14:43:15.216Z,25.09
2023-06-10T14:45:42.172Z,24.97
2023-06-10T14:48:09.320Z,24.79
2023-06-10T14:50:36.351Z,25.11
2023-06-10T14:53:03.747Z,24.86
2023-06-10T14:55:30.699Z,25.14
2023-06-10T14:57:57.355Z,25.47
2023-06-10T15:00:24.290Z,25.84
2023-06-10T15:02:51.958Z,25.67
2023-06-10T15:05:19.536Z,25.56
2023-06-10T15:07:48.739Z,25.67
2023-06-10T15:10:16.222Z,25.89
2023-06-10T15:12:43.061Z,25.77
2023-06-10T15:15:10.323Z,25.54
2023-06-10T15:17:37.281Z,25.92
2023-06-10T15:20:04.688Z,26.06
2023-06-10T15:22:32.766Z,25.81
2023-06-10T15:25:02.296Z,25.95
2023-06-10T15:27:29.103Z,25.43
2023-06-10T15:29:55.842Z,25.77
2023-06-10T15:32:22.555Z,25.91
2023-06-10T15:34:50.629Z,25.90
2023-06-10T15:37:17.355Z,25.62
2023-06-10T15:39:44.170Z,25.57
2023-06-10T15:42:10.954Z,25.50
2023-06-10T15:44:37.704Z,25.51
2023-06-10T15:47:04.822Z,25.30
2023-06-10T15:49:31.501Z,25.37
2023-06-10T15:51:58.213Z,25.49
2023-06-10T15:54:24.983Z,25.43
2023-06-10T15:56:51.792Z,25.33
2023-06-10T15:59:18.564Z,25.37
2023-06-10T16:01:45.652Z,25.34
2023-06-10T16:04:12.822Z,25.01
2023-06-10T16:06:39.695Z,25.20
2023-06-10T16:09:06.429Z,25.11
2023-06-10T16:11:33.270Z,24.88
2023-06-10T16:14:00.371Z,24.62
2023-06-10T16:16:27.228Z,24.48
2023-06-10T16:18:54.979Z,24.29
2023-06-10T16:21:21.727Z,24.06
2023-06-10T16:23:48.479Z,23.80
2023-06-10T16:26:15.244Z,24.26
2023-06-10T16:28:41.905Z,24.30
2023-06-10T16:31:08.623Z,24.49
2023-06-10T16:33:38.265Z,24.58
2023-06-10T16:36:05.077Z,24.75
2023-06-10T16:38:31.804Z,24.68
2023-06-10T16:40:58.538Z,24.83
2023-06-10T16:43:25.261Z,24.96
2023-06-10T16:45:52.016Z,24.98
2023-06-10T16:48:18.729Z,24.85
2023-06-10T16:50:45.442Z,24.82
2023-06-10T16:53:14.678Z,24.83
2023-06-10T16:55:41.467Z,24.94
2023-06-10T16:58:08.398Z,24.75
2023-06-10T17:00:35.402Z,24.63
2023-06-10T17:03:02.189Z,24.70
2023-06-10T17:05:28.947Z,24.80
2023-06-10T17:07:55.675Z,24.81
2023-06-10T17:10:22.520Z,24.94
2023-06-10T17:12:49.218Z,25.10
2023-06-10T17:15:16.079Z,25.06
2023-06-10T17:17:42.904Z,25.13
2023-06-10T17:20:10.031Z,25.10
2023-06-10T17:22:36.732Z,24.99
2023-06-10T17:25:03.547Z,25.09
2023-06-10T17:27:30.269Z,25.08
2023-06-10T17:29:56.956Z,25.25
2023-06-10T17:32:23.784Z,25.39
2023-06-10T17:34:50.547Z,25.40
2023-06-10T17:37:17.224Z,25.10
2023-06-10T17:39:45.037Z,25.01
2023-06-10T17:42:11.740Z,25.15
2023-06-10T17:44:38.456Z,25.10
2023-06-10T17:47:05.406Z,24.97
2023-06-10T17:49:33.345Z,25.10
2023-06-10T17:52:00.368Z,25.16
2023-06-10T17:54:27.088Z,25.25
2023-06-10T17:56:53.780Z,25.40
2023-06-10T17:59:20.467Z,25.51
2023-06-10T18:01:47.250Z,25.57
2023-06-10T18:04:14.015Z,25.74
2023-06-10T18:06:40.894Z,25.15
2023-06-10T18:09:09.420Z,24.58
2023-06-10T18:11:38.400Z,24.92
2023-06-10T18:14:05.097Z,24.94
2023-06-10T18:16:31.809Z,25.12
2023-06-10T18:19:01.494Z,25.25
2023-06-10T18:21:28.302Z,25.35
2023-06-10T18:23:55.107Z,24.75
2023-06-10T18:26:21.854Z,24.82
2023-06-10T18:28:48.565Z,24.77
2023-06-10T18:31:15.353Z,24.44
2023-06-10T18:33:42.112Z,24.47
2023-06-10T18:36:08.816Z,24.40
2023-06-10T18:38:35.480Z,24.41
2023-06-10T18:41:02.180Z,24.44
2023-06-10T18:43:28.863Z,24.50
2023-06-10T18:45:55.669Z,24.41
2023-06-10T18:48:22.504Z,24.56
2023-06-10T18:50:49.313Z,24.25
2023-06-10T18:53:16.008Z,23.97
2023-06-10T18:55:42.808Z,23.54
2023-06-10T18:58:26.932Z,23.33
2023-06-10T19:00:56.450Z,23.16
2023-06-10T19:03:23.392Z,23.09
2023-06-10T19:05:51.489Z,22.95
2023-06-10T19:08:18.408Z,23.11
2023-06-10T19:10:47.488Z,23.41
2023-06-10T19:13:16.759Z,23.52
2023-06-10T19:15:43.453Z,23.70
2023-06-10T19:18:10.270Z,23.58
2023-06-10T19:20:36.947Z,23.46
2023-06-10T19:23:03.691Z,23.41
2023-06-10T19:25:30.546Z,23.21
2023-06-10T19:27:57.264Z,22.91
2023-06-10T19:30:24.163Z,22.46
2023-06-10T19:32:50.957Z,22.52
2023-06-10T19:35:17.809Z,22.62
2023-06-10T19:37:44.524Z,22.60
2023-06-10T19:40:12.330Z,22.65
2023-06-10T19:42:39.067Z,22.78
2023-06-10T19:45:06.169Z,22.75
2023-06-10T19:47:34.338Z,22.53
2023-06-10T19:50:04.026Z,22.52
2023-06-10T19:52:30.743Z,22.63
2023-06-10T19:54:57.446Z,22.54
2023-06-10T19:57:24.292Z,22.39
2023-06-10T19:59:51.032Z,22.29
2023-06-10T20:02:17.815Z,22.29
2023-06-10T20:04:44.612Z,22.23
2023-06-10T20:07:11.393Z,22.11
2023-06-10T20:09:38.338Z,22.27
2023-06-10T20:12:05.260Z,22.36
2023-06-10T20:14:32.021Z,21.99
2023-06-10T20:16:58.743Z,22.09
2023-06-10T20:19:25.468Z,22.18
2023-06-10T20:21:52.161Z,22.23
2023-06-10T20:24:19.099Z,22.28
2023-06-10T20:26:46.010Z,22.05
2023-06-10T20:29:12.776Z,21.53
2023-06-10T20:31:39.589Z,21.34
2023-06-10T20:34:08.339Z,21.29
2023-06-10T20:36:35.035Z,21.33
2023-06-10T20:39:01.702Z,21.41
2023-06-10T20:41:28.503Z,21.31
2023-06-10T20:43:55.222Z,21.30
2023-06-10T20:46:21.999Z,21.48
2023-06-10T20:48:48.976Z,21.50
2023-06-10T20:51:15.677Z,21.53
2023-06-10T20:53:42.482Z,21.38
2023-06-10T20:56:09.207Z,21.03
2023-06-10T20:58:35.911Z,20.13
2023-06-10T21:01:02.731Z,20.27
2023-06-10T21:03:29.578Z,20.03
2023-06-10T21:05:56.738Z,19.94
2023-06-10T21:08:25.173Z,19.96
2023-06-10T21:10:54.390Z,19.85
2023-06-10T21:13:21.082Z,19.87
2023-06-10T21:15:47.872Z,19.83
2023-06-10T21:18:14.826Z,19.75
2023-06-10T21:20:41.526Z,19.93
2023-06-10T21:23:08.280Z,20.31
2023-06-10T21:25:34.994Z,20.55
2023-06-10T21:28:01.740Z,20.79
2023-06-10T21:30:28.517Z,20.85
2023-06-10T21:32:58.011Z,20.54
2023-06-10T21:35:24.738Z,20.66
2023-06-10T21:37:51.466Z,20.47
2023-06-10T21:40:19.840Z,20.25
2023-06-10T21:42:49.070Z,20.02
2023-06-10T21:45:15.787Z,19.99
2023-06-10T21:47:42.497Z,20.16
2023-06-10T21:50:09.548Z,20.21
2023-06-10T21:52:36.308Z,20.26
2023-06-10T21:55:03.195Z,20.01
2023-06-10T21:57:29.955Z,20.14
2023-06-10T21:59:56.674Z,19.89
2023-06-10T22:02:25.406Z,19.91
2023-06-10T22:04:52.194Z,19.92
2023-06-10T22:07:19.019Z,20.01
2023-06-10T22:09:48.853Z,19.85
2023-06-10T22:12:18.954Z,19.64
2023-06-10T22:14:45.866Z,19.59
2023-06-10T22:17:13.080Z,19.39
2023-06-10T22:19:39.975Z,19.15
2023-06-10T22:22:07.226Z,19.18
2023-06-10T22:24:34.059Z,19.12
2023-06-10T22:27:01.625Z,19.49
2023-06-10T22:29:28.362Z,19.72
2023-06-10T22:31:56.482Z,19.70
2023-06-10T22:34:23.661Z,19.58
2023-06-10T22:36:50.406Z,19.41
2023-06-10T22:39:17.202Z,19.44
2023-06-10T22:41:44.094Z,19.71
2023-06-10T22:44:10.920Z,19.76
2023-06-10T22:46:37.772Z,19.61
2023-06-10T22:49:04.599Z,19.72
2023-06-10T22:51:31.448Z,19.76
2023-06-10T22:53:58.144Z,19.83
2023-06-10T22:56:27.166Z,19.92
2023-06-10T22:58:53.964Z,19.68
2023-06-10T23:01:20.800Z,19.70
2023-06-10T23:03:47.607Z,19.70
2023-06-10T23:06:14.317Z,19.59
2023-06-10T23:08:41.055Z,19.63
2023-06-10T23:11:07.766Z,19.78
2023-06-10T23:13:34.455Z,19.89
2023-06-10T23:16:01.173Z,19.67
2023-06-10T23:18:27.951Z,19.47
2023-06-10T23:20:54.697Z,19.59
2023-06-10T23:23:21.407Z,19.44
2023-06-10T23:25:48.197Z,19.58
2023-06-10T23:28:14.884Z,19.58
2023-06-10T23:30:41.579Z,19.60
2023-06-10T23:33:08.461Z,19.49
2023-06-10T23:35:35.417Z,19.43
2023-06-10T23:38:02.113Z,19.50
2023-06-10T23:40:28.818Z,19.57
2023-06-10T23:42:55.540Z,19.39
2023-06-10T23:45:22.224Z,19.54
2023-06-10T23:47:48.956Z,19.25
2023-06-10T23:50:15.828Z,19.30
2023-06-10T23:52:42.560Z,19.22
2023-06-10T23:55:09.893Z,19.21
2023-06-10T23:57:36.873Z,18.97
